createdAt,value
2022-12-11T00:00:34.199Z,22.50
2022-12-11T00:05:57.537Z,23.43
2022-12-11T00:11:00.866Z,14.37
2022-12-11T00:16:04.353Z,14.47
2022-12-11T00:21:13.126Z,18.83
2022-12-11T00:26:17.241Z,17.93
2022-12-11T05:35:57.556Z,21.77
2022-12-11T05:41:03.060Z,21.70
2022-12-11T05:46:07.133Z,17.60
2022-12-11T05:51:10.159Z,19.57
2022-12-11T05:56:21.909Z,18.37
2022-12-11T06:01:30.551Z,20.53
2022-12-11T06:06:33.929Z,17.33
2022-12-11T06:11:36.848Z,19.70
2022-12-11T06:16:39.786Z,18.83
2022-12-11T06:21:44.475Z,20.57
2022-12-11T06:26:47.265Z,20.70
2022-12-11T06:31:50.082Z,24.27
2022-12-11T06:36:52.829Z,21.33
2022-12-11T06:41:55.576Z,20.90
2022-12-11T06:46:58.328Z,22.00
2022-12-11T06:52:01.040Z,23.33
2022-12-11T06:57:03.785Z,21.03
2022-12-11T07:02:06.832Z,22.03
2022-12-11T07:07:10.716Z,22.67
2022-12-11T07:12:13.603Z,20.93
2022-12-11T07:17:16.415Z,19.70
2022-12-11T07:22:19.220Z,20.00
2022-12-11T07:27:22.055Z,24.20
2022-12-11T07:32:24.925Z,22.17
2022-12-11T07:37:28.001Z,21.40
2022-12-11T07:42:30.944Z,18.73
2022-12-11T07:47:34.361Z,23.50
2022-12-11T07:52:37.120Z,15.90
2022-12-11T07:57:39.881Z,20.17
2022-12-11T08:02:42.810Z,16.57
2022-12-11T08:07:45.716Z,17.00
2022-12-11T08:12:48.443Z,16.63
2022-12-11T08:17:51.220Z,19.20
2022-12-11T08:22:58.900Z,16.17
2022-12-11T08:28:02.101Z,17.93
2022-12-11T08:33:04.941Z,18.93
2022-12-11T08:38:07.708Z,22.00
2022-12-11T08:43:10.500Z,19.60
2022-12-11T08:48:13.272Z,25.03
2022-12-11T08:53:16.267Z,22.60
2022-12-11T08:58:19.034Z,19.73
2022-12-11T09:03:21.954Z,16.37
2022-12-11T09:08:25.024Z,18.60
2022-12-11T09:13:27.870Z,15.90
2022-12-11T09:18:30.673Z,17.70
2022-12-11T09:23:33.828Z,17.07
2022-12-11T09:28:38.154Z,18.73
2022-12-11T09:33:43.116Z,18.30
2022-12-11T09:38:47.018Z,20.13
2022-12-11T09:44:09.327Z,15.57
2022-12-11T09:49:42.853Z,18.93
2022-12-11T09:55:01.294Z,23.23
2022-12-11T10:00:41.937Z,18.30
2022-12-11T10:06:15.819Z,15.37
2022-12-11T10:11:56.111Z,20.00
2022-12-11T10:17:09.992Z,12.87
2022-12-11T10:22:23.814Z,16.80
2022-12-11T10:27:31.525Z,18.00
2022-12-11T10:32:51.445Z,18.77
2022-12-11T10:37:57.893Z,16.50
2022-12-11T10:43:01.277Z,19.83
2022-12-11T10:48:10.801Z,24.57
2022-12-11T10:53:24.032Z,20.10
2022-12-11T10:58:31.868Z,18.00
2022-12-11T11:03:36.969Z,13.70
2022-12-11T11:08:46.066Z,19.13
2022-12-11T11:13:49.003Z,19.20
2022-12-11T11:18:55.747Z,18.27
2022-12-11T11:23:58.831Z,21.57
2022-12-11T11:29:01.677Z,25.33
2022-12-11T11:34:10.867Z,17.93
2022-12-11T11:39:16.779Z,18.10
2022-12-11T11:44:30.049Z,20.17
2022-12-11T11:49:44.448Z,25.13
2022-12-11T11:55:15.201Z,25.93
2022-12-11T12:00:26.490Z,29.37
2022-12-11T12:05:54.268Z,18.23
2022-12-11T12:11:04.821Z,23.30
2022-12-11T12:21:55.971Z,20.90
2022-12-11T12:27:51.960Z,26.60
2022-12-11T12:33:20.866Z,30.87
2022-12-11T12:38:54.863Z,22.53
2022-12-11T12:44:17.272Z,25.43
2022-12-11T12:49:48.651Z,29.57
2022-12-11T12:55:13.566Z,20.93
2022-12-11T13:00:34.091Z,17.87
2022-12-11T13:05:36.966Z,24.20
2022-12-11T13:10:42.044Z,17.40
2022-12-11T13:15:44.782Z,16.10
2022-12-11T13:20:51.207Z,20.00
2022-12-11T13:26:00.045Z,21.23
2022-12-11T13:31:15.650Z,20.23
2022-12-11T13:36:24.084Z,25.23
2022-12-11T13:41:28.840Z,25.90
2022-12-11T13:46:35.974Z,26.80
2022-12-11T13:51:39.079Z,28.27
2022-12-11T13:57:02.950Z,26.47
2022-12-11T14:02:25.156Z,24.80
2022-12-11T14:07:31.187Z,27.63
2022-12-11T14:12:34.155Z,27.53
2022-12-11T14:17:37.032Z,27.80
2022-12-11T14:22:39.809Z,24.70
2022-12-11T14:28:17.360Z,29.77
2022-12-11T14:33:22.770Z,26.33
2022-12-11T14:38:33.732Z,33.73
2022-12-11T14:43:41.788Z,36.33
2022-12-11T14:48:48.348Z,37.33
2022-12-11T14:53:53.138Z,46.17
2022-12-11T14:59:07.112Z,28.60
2022-12-11T15:04:24.612Z,21.13
2022-12-11T15:09:37.929Z,32.27
2022-12-11T15:14:50.899Z,31.23
2022-12-11T15:19:56.812Z,29.93
2022-12-11T15:25:00.541Z,23.73
2022-12-11T15:30:15.583Z,19.50
2022-12-11T15:35:30.196Z,21.73
2022-12-11T15:40:33.396Z,17.83
2022-12-11T15:45:36.659Z,28.00
2022-12-11T15:50:40.793Z,24.67
2022-12-11T15:55:43.648Z,24.47
2022-12-11T16:00:46.557Z,25.80
2022-12-11T16:05:50.673Z,23.87
2022-12-11T16:10:54.817Z,28.30
2022-12-11T16:15:58.393Z,24.50
2022-12-11T16:21:06.260Z,29.13
2022-12-11T16:26:09.968Z,23.90
2022-12-11T16:31:13.808Z,27.37
2022-12-11T16:36:18.332Z,29.73
2022-12-11T16:41:23.013Z,26.17
2022-12-11T16:46:26.009Z,29.20
2022-12-11T16:51:29.168Z,36.93
2022-12-11T16:56:32.097Z,27.30
2022-12-11T17:01:35.232Z,26.70
2022-12-11T17:06:38.171Z,30.73
2022-12-11T17:11:41.024Z,31.37
2022-12-11T17:16:44.078Z,33.37
2022-12-11T17:21:51.577Z,27.40
2022-12-11T17:26:55.936Z,24.73
2022-12-11T17:31:59.473Z,30.80
2022-12-11T17:37:02.449Z,34.30
2022-12-11T17:42:05.747Z,32.00
2022-12-11T17:47:11.174Z,36.37
2022-12-11T17:52:14.281Z,33.10
2022-12-11T17:57:17.262Z,29.83
2022-12-11T18:02:20.235Z,28.93
2022-12-11T18:07:23.301Z,33.17
2022-12-11T18:12:26.141Z,31.07
2022-12-11T18:17:29.628Z,33.07
2022-12-11T18:22:32.706Z,30.57
2022-12-11T18:27:35.770Z,33.17
2022-12-11T18:32:38.682Z,26.00
2022-12-11T18:37:42.322Z,24.27
2022-12-11T18:42:45.257Z,27.37
2022-12-11T18:47:48.289Z,30.83
2022-12-11T18:52:55.184Z,24.43
2022-12-11T18:57:58.320Z,19.50
2022-12-11T19:03:02.134Z,22.80
2022-12-11T19:08:05.324Z,24.23
2022-12-11T19:13:08.215Z,28.97
2022-12-11T19:18:11.515Z,25.20
2022-12-11T19:23:14.392Z,25.10
2022-12-11T19:28:17.743Z,25.00
2022-12-11T19:33:20.524Z,18.27
2022-12-11T19:38:23.456Z,17.93
2022-12-11T19:43:26.294Z,24.03
2022-12-11T19:48:29.453Z,23.70
2022-12-11T19:53:32.438Z,33.37
2022-12-11T19:58:35.469Z,33.70
2022-12-11T20:03:38.395Z,25.17
2022-12-11T20:08:45.841Z,34.50
2022-12-11T20:13:50.097Z,23.63
2022-12-11T20:18:54.849Z,24.13
2022-12-11T20:23:57.722Z,22.00
2022-12-11T20:29:00.576Z,23.83
2022-12-11T20:34:04.071Z,28.90
2022-12-11T20:39:06.930Z,20.17
2022-12-11T20:44:09.770Z,22.93
2022-12-11T20:49:17.911Z,20.83
2022-12-11T20:54:20.804Z,21.30
2022-12-11T20:59:23.789Z,22.97
2022-12-11T21:04:27.454Z,26.33
2022-12-11T21:09:30.510Z,23.33
2022-12-11T21:14:33.546Z,23.10
2022-12-11T21:19:36.840Z,20.07
2022-12-11T21:24:40.594Z,17.77
2022-12-11T21:29:43.494Z,25.27
2022-12-11T21:34:46.233Z,25.30
2022-12-11T21:39:49.082Z,22.57
2022-12-11T21:50:14.658Z,18.70
2022-12-11T21:55:18.263Z,24.37
2022-12-11T22:00:21.588Z,23.77
2022-12-11T22:05:24.460Z,21.87
2022-12-11T22:10:28.739Z,23.13
2022-12-11T22:15:31.495Z,29.90
2022-12-11T22:20:34.288Z,21.53
2022-12-11T22:25:37.153Z,20.20
2022-12-11T22:30:40.777Z,25.73
2022-12-11T22:35:43.616Z,22.67
2022-12-11T22:40:46.361Z,23.90
2022-12-11T22:45:49.401Z,19.23
2022-12-11T22:50:52.278Z,22.20
2022-12-11T22:55:55.054Z,26.93
2022-12-11T23:00:57.961Z,25.27
2022-12-11T23:06:05.022Z,23.27
2022-12-11T23:11:14.139Z,25.97
2022-12-11T23:16:17.591Z,28.23
2022-12-11T23:21:21.733Z,18.80
2022-12-11T23:26:27.236Z,27.53
2022-12-11T23:31:30.319Z,23.20
2022-12-11T23:36:33.285Z,28.50
2022-12-11T23:41:36.076Z,21.77
2022-12-11T23:46:39.330Z,20.03
2022-12-11T23:51:42.123Z,21.73
2022-12-11T23:56:44.893Z,18.17
